sensor_id;sensor_type;location;lat;lon;timestamp;temperature;humidity
10123;DHT22;5101;49.038;8.710;2023-02-13T00:01:24;3.00;99.90
10123;DHT22;5101;49.038;8.710;2023-02-13T00:03:49;3.00;99.90
10123;DHT22;5101;49.038;8.710;2023-02-13T00:06:15;3.10;99.90
10123;DHT22;5101;49.038;8.710;2023-02-13T00:08:40;3.10;99.90
10123;DHT22;5101;49.038;8.710;2023-02-13T00:11:06;3.10;99.90
10123;DHT22;5101;49.038;8.710;2023-02-13T00:13:33;3.10;99.90
10123;DHT22;5101;49.038;8.710;2023-02-13T00:16:01;3.10;99.90
10123;DHT22;5101;49.038;8.710;2023-02-13T00:18:28;3.00;99.90
10123;DHT22;5101;49.038;8.710;2023-02-13T00:21:04;3.00;99.90
10123;DHT22;5101;49.038;8.710;2023-02-13T00:23:32;3.00;99.90
10123;DHT22;5101;49.038;8.710;2023-02-13T00:25:58;3.00;99.90
10123;DHT22;5101;49.038;8.710;2023-02-13T00:28:25;3.00;99.90
10123;DHT22;5101;49.038;8.710;2023-02-13T00:30:50;3.10;99.90
10123;DHT22;5101;49.038;8.710;2023-02-13T00:33:16;3.10;99.90
10123;DHT22;5101;49.038;8.710;2023-02-13T00:35:41;3.10;99.90
10123;DHT22;5101;49.038;8.710;2023-02-13T00:38:07;3.10;99.90
10123;DHT22;5101;49.038;8.710;2023-02-13T00:40:32;3.10;99.90
10123;DHT22;5101;49.038;8.710;2023-02-13T00:42:58;3.10;99.90
10123;DHT22;5101;49.038;8.710;2023-02-13T00:45:24;3.10;99.90
10123;DHT22;5101;49.038;8.710;2023-02-13T00:47:49;3.20;99.90
10123;DHT22;5101;49.038;8.710;2023-02-13T00:50:15;3.20;99.90
10123;DHT22;5101;49.038;8.710;2023-02-13T00:52:40;3.10;99.90
10123;DHT22;5101;49.038;8.710;2023-02-13T00:55:06;3.10;99.90
10123;DHT22;5101;49.038;8.710;2023-02-13T00:57:31;3.00;99.90
10123;DHT22;5101;49.038;8.710;2023-02-13T00:59:57;3.00;99.90
10123;DHT22;5101;49.038;8.710;2023-02-13T01:02:23;3.00;99.90
10123;DHT22;5101;49.038;8.710;2023-02-13T01:04:48;2.90;99.90
10123;DHT22;5101;49.038;8.710;2023-02-13T01:07:14;2.90;99.90
10123;DHT22;5101;49.038;8.710;2023-02-13T01:09:40;2.80;99.90
10123;DHT22;5101;49.038;8.710;2023-02-13T01:12:05;2.90;99.90
10123;DHT22;5101;49.038;8.710;2023-02-13T01:14:31;2.80;99.90
10123;DHT22;5101;49.038;8.710;2023-02-13T01:16:56;2.90;99.90
10123;DHT22;5101;49.038;8.710;2023-02-13T01:19:22;2.80;99.90
10123;DHT22;5101;49.038;8.710;2023-02-13T01:21:47;2.80;99.90
10123;DHT22;5101;49.038;8.710;2023-02-13T01:24:13;3.00;99.90
10123;DHT22;5101;49.038;8.710;2023-02-13T01:26:38;2.70;99.90
10123;DHT22;5101;49.038;8.710;2023-02-13T01:29:04;2.80;99.90
10123;DHT22;5101;49.038;8.710;2023-02-13T01:31:29;2.80;99.90
10123;DHT22;5101;49.038;8.710;2023-02-13T01:33:56;3.00;99.90
10123;DHT22;5101;49.038;8.710;2023-02-13T01:36:22;2.80;99.90
10123;DHT22;5101;49.038;8.710;2023-02-13T01:38:52;2.80;99.90
10123;DHT22;5101;49.038;8.710;2023-02-13T01:41:18;2.90;99.90
10123;DHT22;5101;49.038;8.710;2023-02-13T01:43:52;2.80;99.90
10123;DHT22;5101;49.038;8.710;2023-02-13T01:46:23;2.90;99.90
10123;DHT22;5101;49.038;8.710;2023-02-13T01:48:50;2.90;99.90
10123;DHT22;5101;49.038;8.710;2023-02-13T01:51:21;2.90;99.90
10123;DHT22;5101;49.038;8.710;2023-02-13T01:53:56;3.00;99.90
10123;DHT22;5101;49.038;8.710;2023-02-13T01:56:33;3.00;99.90
10123;DHT22;5101;49.038;8.710;2023-02-13T01:59:47;3.00;99.90
10123;DHT22;5101;49.038;8.710;2023-02-13T02:01:53;3.00;99.90
10123;DHT22;5101;49.038;8.710;2023-02-13T02:04:24;3.10;99.90
10123;DHT22;5101;49.038;8.710;2023-02-13T02:07:03;3.00;99.90
10123;DHT22;5101;49.038;8.710;2023-02-13T02:09:34;3.00;99.90
10123;DHT22;5101;49.038;8.710;2023-02-13T02:12:29;3.00;99.90
10123;DHT22;5101;49.038;8.710;2023-02-13T02:14:55;3.00;99.90
10123;DHT22;5101;49.038;8.710;2023-02-13T02:17:24;3.00;99.90
10123;DHT22;5101;49.038;8.710;2023-02-13T02:23:15;3.00;99.90
10123;DHT22;5101;49.038;8.710;2023-02-13T02:35:07;2.90;99.90
10123;DHT22;5101;49.038;8.710;2023-02-13T02:37:46;2.90;99.90
10123;DHT22;5101;49.038;8.710;2023-02-13T02:43:02;2.90;99.90
10123;DHT22;5101;49.038;8.710;2023-02-13T02:49:13;3.00;99.90
10123;DHT22;5101;49.038;8.710;2023-02-13T02:52:02;3.00;99.90
10123;DHT22;5101;49.038;8.710;2023-02-13T02:54:36;3.00;99.90
10123;DHT22;5101;49.038;8.710;2023-02-13T02:57:25;3.00;99.90
10123;DHT22;5101;49.038;8.710;2023-02-13T03:00:18;3.00;99.90
10123;DHT22;5101;49.038;8.710;2023-02-13T03:03:04;3.00;99.90
10123;DHT22;5101;49.038;8.710;2023-02-13T03:05:51;2.90;99.90
10123;DHT22;5101;49.038;8.710;2023-02-13T03:08:36;2.90;99.90
10123;DHT22;5101;49.038;8.710;2023-02-13T03:11:21;2.90;99.90
10123;DHT22;5101;49.038;8.710;2023-02-13T03:14:05;2.90;99.90
10123;DHT22;5101;49.038;8.710;2023-02-13T03:16:31;2.90;99.90
10123;DHT22;5101;49.038;8.710;2023-02-13T03:22:36;2.90;99.90
10123;DHT22;5101;49.038;8.710;2023-02-13T03:25:20;2.90;99.90
10123;DHT22;5101;49.038;8.710;2023-02-13T03:33:41;2.90;99.90
10123;DHT22;5101;49.038;8.710;2023-02-13T03:36:29;2.80;99.90
10123;DHT22;5101;49.038;8.710;2023-02-13T03:39:35;2.90;99.90
10123;DHT22;5101;49.038;8.710;2023-02-13T03:42:07;2.90;99.90
10123;DHT22;5101;49.038;8.710;2023-02-13T03:44:59;2.80;99.90
10123;DHT22;5101;49.038;8.710;2023-02-13T03:47:46;2.80;99.90
10123;DHT22;5101;49.038;8.710;2023-02-13T03:50:14;2.80;99.90
10123;DHT22;5101;49.038;8.710;2023-02-13T03:52:59;2.90;99.90
10123;DHT22;5101;49.038;8.710;2023-02-13T03:55:33;2.80;99.90
10123;DHT22;5101;49.038;8.710;2023-02-13T03:58:40;2.80;99.90
10123;DHT22;5101;49.038;8.710;2023-02-13T04:01:28;2.90;99.90
10123;DHT22;5101;49.038;8.710;2023-02-13T04:06:55;2.80;99.90
10123;DHT22;5101;49.038;8.710;2023-02-13T04:09:27;2.90;99.90
10123;DHT22;5101;49.038;8.710;2023-02-13T04:17:35;2.90;99.90
10123;DHT22;5101;49.038;8.710;2023-02-13T04:20:04;2.90;99.90
10123;DHT22;5101;49.038;8.710;2023-02-13T04:22:30;2.90;99.90
10123;DHT22;5101;49.038;8.710;2023-02-13T04:24:55;2.90;99.90
10123;DHT22;5101;49.038;8.710;2023-02-13T04:27:22;2.90;99.90
10123;DHT22;5101;49.038;8.710;2023-02-13T04:29:49;2.90;99.90
10123;DHT22;5101;49.038;8.710;2023-02-13T04:32:15;2.90;99.90
10123;DHT22;5101;49.038;8.710;2023-02-13T04:34:41;3.00;99.90
10123;DHT22;5101;49.038;8.710;2023-02-13T04:37:07;2.90;99.90
10123;DHT22;5101;49.038;8.710;2023-02-13T04:39:32;2.90;99.90
10123;DHT22;5101;49.038;8.710;2023-02-13T04:41:58;2.90;99.90
10123;DHT22;5101;49.038;8.710;2023-02-13T04:44:23;2.90;99.90
10123;DHT22;5101;49.038;8.710;2023-02-13T04:46:49;2.90;99.90
10123;DHT22;5101;49.038;8.710;2023-02-13T04:49:14;2.90;99.90
10123;DHT22;5101;49.038;8.710;2023-02-13T04:51:40;2.90;99.90
10123;DHT22;5101;49.038;8.710;2023-02-13T04:54:05;2.90;99.90
10123;DHT22;5101;49.038;8.710;2023-02-13T04:56:31;2.90;99.90
10123;DHT22;5101;49.038;8.710;2023-02-13T04:58:56;2.90;99.90
10123;DHT22;5101;49.038;8.710;2023-02-13T05:01:22;2.90;99.90
10123;DHT22;5101;49.038;8.710;2023-02-13T05:03:47;2.90;99.90
10123;DHT22;5101;49.038;8.710;2023-02-13T05:06:13;2.90;99.90
10123;DHT22;5101;49.038;8.710;2023-02-13T05:08:39;2.90;99.90
10123;DHT22;5101;49.038;8.710;2023-02-13T05:11:04;2.90;99.90
10123;DHT22;5101;49.038;8.710;2023-02-13T05:13:30;2.90;99.90
10123;DHT22;5101;49.038;8.710;2023-02-13T05:15:55;2.90;99.90
10123;DHT22;5101;49.038;8.710;2023-02-13T05:18:21;2.90;99.90
10123;DHT22;5101;49.038;8.710;2023-02-13T05:20:46;2.90;99.90
10123;DHT22;5101;49.038;8.710;2023-02-13T05:23:32;2.90;99.90
10123;DHT22;5101;49.038;8.710;2023-02-13T05:25:58;2.80;99.90
10123;DHT22;5101;49.038;8.710;2023-02-13T05:28:23;2.80;99.90
10123;DHT22;5101;49.038;8.710;2023-02-13T05:31:07;2.80;99.90
10123;DHT22;5101;49.038;8.710;2023-02-13T05:33:33;2.80;99.90
10123;DHT22;5101;49.038;8.710;2023-02-13T05:35:58;2.70;99.90
10123;DHT22;5101;49.038;8.710;2023-02-13T05:38:24;2.70;99.90
10123;DHT22;5101;49.038;8.710;2023-02-13T05:40:49;2.70;99.90
10123;DHT22;5101;49.038;8.710;2023-02-13T05:43:15;2.70;99.90
10123;DHT22;5101;49.038;8.710;2023-02-13T05:45:40;2.70;99.90
10123;DHT22;5101;49.038;8.710;2023-02-13T05:48:06;2.60;99.90
10123;DHT22;5101;49.038;8.710;2023-02-13T05:50:31;2.60;99.90
10123;DHT22;5101;49.038;8.710;2023-02-13T05:52:57;2.60;99.90
10123;DHT22;5101;49.038;8.710;2023-02-13T05:55:22;2.60;99.90
10123;DHT22;5101;49.038;8.710;2023-02-13T05:57:48;2.60;99.90
10123;DHT22;5101;49.038;8.710;2023-02-13T06:00:14;2.60;99.90
10123;DHT22;5101;49.038;8.710;2023-02-13T06:02:40;2.60;99.90
10123;DHT22;5101;49.038;8.710;2023-02-13T06:05:06;2.50;99.90
10123;DHT22;5101;49.038;8.710;2023-02-13T06:07:32;2.50;99.90
10123;DHT22;5101;49.038;8.710;2023-02-13T06:09:57;2.50;99.90
10123;DHT22;5101;49.038;8.710;2023-02-13T06:12:24;2.50;99.90
10123;DHT22;5101;49.038;8.710;2023-02-13T06:14:49;2.50;99.90
10123;DHT22;5101;49.038;8.710;2023-02-13T06:17:15;2.40;99.90
10123;DHT22;5101;49.038;8.710;2023-02-13T06:19:40;2.40;99.90
10123;DHT22;5101;49.038;8.710;2023-02-13T06:22:06;2.40;99.90
10123;DHT22;5101;49.038;8.710;2023-02-13T06:24:31;2.40;99.90
10123;DHT22;5101;49.038;8.710;2023-02-13T06:26:57;2.40;99.90
10123;DHT22;5101;49.038;8.710;2023-02-13T06:29:22;2.40;99.90
10123;DHT22;5101;49.038;8.710;2023-02-13T06:31:48;2.30;99.90
10123;DHT22;5101;49.038;8.710;2023-02-13T06:34:13;2.30;99.90
10123;DHT22;5101;49.038;8.710;2023-02-13T06:36:39;2.40;99.90
10123;DHT22;5101;49.038;8.710;2023-02-13T06:39:08;2.30;99.90
10123;DHT22;5101;49.038;8.710;2023-02-13T06:41:34;2.30;99.90
10123;DHT22;5101;49.038;8.710;2023-02-13T06:43:59;2.30;99.90
10123;DHT22;5101;49.038;8.710;2023-02-13T06:46:25;2.20;99.90
10123;DHT22;5101;49.038;8.710;2023-02-13T06:48:50;2.20;99.90
10123;DHT22;5101;49.038;8.710;2023-02-13T06:51:16;2.20;99.90
10123;DHT22;5101;49.038;8.710;2023-02-13T06:53:41;2.20;99.90
10123;DHT22;5101;49.038;8.710;2023-02-13T06:56:07;2.20;99.90
10123;DHT22;5101;49.038;8.710;2023-02-13T06:58:32;2.20;99.90
10123;DHT22;5101;49.038;8.710;2023-02-13T07:00:58;2.20;99.90
10123;DHT22;5101;49.038;8.710;2023-02-13T07:03:24;2.20;99.90
10123;DHT22;5101;49.038;8.710;2023-02-13T07:05:49;2.20;99.90
10123;DHT22;5101;49.038;8.710;2023-02-13T07:08:16;2.40;99.90
10123;DHT22;5101;49.038;8.710;2023-02-13T07:10:42;2.20;99.90
10123;DHT22;5101;49.038;8.710;2023-02-13T07:13:08;2.20;99.90
10123;DHT22;5101;49.038;8.710;2023-02-13T07:15:35;2.20;99.90
10123;DHT22;5101;49.038;8.710;2023-02-13T07:18:01;2.20;99.90
10123;DHT22;5101;49.038;8.710;2023-02-13T07:20:27;2.10;99.90
10123;DHT22;5101;49.038;8.710;2023-02-13T07:22:57;2.10;99.90
10123;DHT22;5101;49.038;8.710;2023-02-13T07:25:23;2.20;99.90
10123;DHT22;5101;49.038;8.710;2023-02-13T07:27:48;2.20;99.90
10123;DHT22;5101;49.038;8.710;2023-02-13T07:30:14;2.20;99.90
10123;DHT22;5101;49.038;8.710;2023-02-13T07:32:39;2.20;99.90
10123;DHT22;5101;49.038;8.710;2023-02-13T07:35:05;2.30;99.90
10123;DHT22;5101;49.038;8.710;2023-02-13T07:37:30;2.30;99.90
10123;DHT22;5101;49.038;8.710;2023-02-13T07:39:56;2.30;99.90
10123;DHT22;5101;49.038;8.710;2023-02-13T07:42:22;2.40;99.90
10123;DHT22;5101;49.038;8.710;2023-02-13T07:44:47;2.30;99.90
10123;DHT22;5101;49.038;8.710;2023-02-13T07:47:13;2.40;99.90
10123;DHT22;5101;49.038;8.710;2023-02-13T07:49:38;2.40;99.90
10123;DHT22;5101;49.038;8.710;2023-02-13T07:52:04;2.50;99.90
10123;DHT22;5101;49.038;8.710;2023-02-13T07:54:30;2.50;99.90
10123;DHT22;5101;49.038;8.710;2023-02-13T07:56:57;2.60;99.90
10123;DHT22;5101;49.038;8.710;2023-02-13T07:59:22;2.70;99.90
10123;DHT22;5101;49.038;8.710;2023-02-13T08:01:48;2.80;99.90
10123;DHT22;5101;49.038;8.710;2023-02-13T08:04:13;2.90;99.90
10123;DHT22;5101;49.038;8.710;2023-02-13T08:06:40;3.10;99.90
10123;DHT22;5101;49.038;8.710;2023-02-13T08:09:05;3.20;99.90
10123;DHT22;5101;49.038;8.710;2023-02-13T08:11:52;3.20;99.90
10123;DHT22;5101;49.038;8.710;2023-02-13T08:14:18;3.30;99.90
10123;DHT22;5101;49.038;8.710;2023-02-13T08:16:44;3.50;99.90
10123;DHT22;5101;49.038;8.710;2023-02-13T08:19:09;3.60;99.90
10123;DHT22;5101;49.038;8.710;2023-02-13T08:21:35;3.70;99.90
10123;DHT22;5101;49.038;8.710;2023-02-13T08:24:03;3.80;99.90
10123;DHT22;5101;49.038;8.710;2023-02-13T08:26:30;3.90;99.90
10123;DHT22;5101;49.038;8.710;2023-02-13T08:28:56;4.30;99.90
10123;DHT22;5101;49.038;8.710;2023-02-13T08:31:21;4.60;99.90
10123;DHT22;5101;49.038;8.710;2023-02-13T08:33:47;4.70;99.90
10123;DHT22;5101;49.038;8.710;2023-02-13T08:36:12;5.00;99.90
10123;DHT22;5101;49.038;8.710;2023-02-13T08:38:38;5.20;99.90
10123;DHT22;5101;49.038;8.710;2023-02-13T08:41:04;5.50;99.90
10123;DHT22;5101;49.038;8.710;2023-02-13T08:43:29;5.90;99.90
10123;DHT22;5101;49.038;8.710;2023-02-13T08:45:58;6.20;99.90
10123;DHT22;5101;49.038;8.710;2023-02-13T08:48:24;6.60;99.90
10123;DHT22;5101;49.038;8.710;2023-02-13T08:50:49;7.00;99.90
10123;DHT22;5101;49.038;8.710;2023-02-13T08:53:15;7.30;99.90
10123;DHT22;5101;49.038;8.710;2023-02-13T08:55:40;7.80;99.90
10123;DHT22;5101;49.038;8.710;2023-02-13T08:58:06;8.00;99.90
10123;DHT22;5101;49.038;8.710;2023-02-13T09:00:31;8.30;99.90
10123;DHT22;5101;49.038;8.710;2023-02-13T09:03:01;8.80;99.90
10123;DHT22;5101;49.038;8.710;2023-02-13T09:05:27;9.20;99.90
10123;DHT22;5101;49.038;8.710;2023-02-13T09:07:53;9.80;98.60
10123;DHT22;5101;49.038;8.710;2023-02-13T09:10:19;10.10;96.40
10123;DHT22;5101;49.038;8.710;2023-02-13T09:12:51;10.50;95.50
10123;DHT22;5101;49.038;8.710;2023-02-13T09:15:17;10.70;94.40
10123;DHT22;5101;49.038;8.710;2023-02-13T09:17:42;11.20;93.30
10123;DHT22;5101;49.038;8.710;2023-02-13T09:20:08;11.50;92.30
10123;DHT22;5101;49.038;8.710;2023-02-13T09:22:34;11.30;91.60
10123;DHT22;5101;49.038;8.710;2023-02-13T09:24:59;11.20;91.10
10123;DHT22;5101;49.038;8.710;2023-02-13T09:27:28;11.30;90.80
10123;DHT22;5101;49.038;8.710;2023-02-13T09:29:54;11.40;89.90
10123;DHT22;5101;49.038;8.710;2023-02-13T09:32:20;11.80;88.40
10123;DHT22;5101;49.038;8.710;2023-02-13T09:34:45;12.30;86.90
10123;DHT22;5101;49.038;8.710;2023-02-13T09:37:11;12.60;84.80
10123;DHT22;5101;49.038;8.710;2023-02-13T09:39:37;12.90;83.20
10123;DHT22;5101;49.038;8.710;2023-02-13T09:42:10;13.10;81.50
10123;DHT22;5101;49.038;8.710;2023-02-13T09:44:42;12.90;80.40
10123;DHT22;5101;49.038;8.710;2023-02-13T09:47:13;13.20;80.10
10123;DHT22;5101;49.038;8.710;2023-02-13T09:49:44;13.60;79.20
10123;DHT22;5101;49.038;8.710;2023-02-13T09:52:11;13.80;77.40
10123;DHT22;5101;49.038;8.710;2023-02-13T09:54:37;13.70;76.60
10123;DHT22;5101;49.038;8.710;2023-02-13T09:57:14;13.90;75.80
10123;DHT22;5101;49.038;8.710;2023-02-13T10:00:19;14.20;74.50
10123;DHT22;5101;49.038;8.710;2023-02-13T10:16:32;13.90;71.20
10123;DHT22;5101;49.038;8.710;2023-02-13T10:19:28;14.10;70.50
10123;DHT22;5101;49.038;8.710;2023-02-13T10:22:04;14.50;68.90
10123;DHT22;5101;49.038;8.710;2023-02-13T10:24:51;14.10;68.70
10123;DHT22;5101;49.038;8.710;2023-02-13T10:27:23;14.00;68.70
10123;DHT22;5101;49.038;8.710;2023-02-13T10:29:54;13.60;68.50
10123;DHT22;5101;49.038;8.710;2023-02-13T10:36:05;13.90;69.10
10123;DHT22;5101;49.038;8.710;2023-02-13T10:38:34;13.30;69.10
10123;DHT22;5101;49.038;8.710;2023-02-13T10:46:29;13.50;70.00
10123;DHT22;5101;49.038;8.710;2023-02-13T11:00:24;14.10;69.50
10123;DHT22;5101;49.038;8.710;2023-02-13T11:02:54;14.10;68.70
10123;DHT22;5101;49.038;8.710;2023-02-13T11:05:23;14.20;69.00
10123;DHT22;5101;49.038;8.710;2023-02-13T11:07:49;14.70;68.30
10123;DHT22;5101;49.038;8.710;2023-02-13T11:10:16;14.80;67.40
10123;DHT22;5101;49.038;8.710;2023-02-13T11:12:42;14.90;66.60
10123;DHT22;5101;49.038;8.710;2023-02-13T11:17:44;14.40;66.10
10123;DHT22;5101;49.038;8.710;2023-02-13T11:20:33;14.60;66.00
10123;DHT22;5101;49.038;8.710;2023-02-13T11:23:34;14.30;66.00
10123;DHT22;5101;49.038;8.710;2023-02-13T11:26:07;14.40;66.30
10123;DHT22;5101;49.038;8.710;2023-02-13T11:28:44;14.30;66.30
10123;DHT22;5101;49.038;8.710;2023-02-13T11:31:22;14.50;66.10
10123;DHT22;5101;49.038;8.710;2023-02-13T11:33:49;14.30;66.10
10123;DHT22;5101;49.038;8.710;2023-02-13T11:36:22;14.50;66.20
10123;DHT22;5101;49.038;8.710;2023-02-13T11:38:59;14.60;65.80
10123;DHT22;5101;49.038;8.710;2023-02-13T11:41:25;14.50;65.40
10123;DHT22;5101;49.038;8.710;2023-02-13T11:43:56;14.40;65.10
10123;DHT22;5101;49.038;8.710;2023-02-13T11:46:28;14.10;65.10
10123;DHT22;5101;49.038;8.710;2023-02-13T11:49:05;13.90;65.70
10123;DHT22;5101;49.038;8.710;2023-02-13T11:51:36;13.80;65.80
10123;DHT22;5101;49.038;8.710;2023-02-13T11:54:03;13.90;65.90
10123;DHT22;5101;49.038;8.710;2023-02-13T11:56:46;13.80;65.60
10123;DHT22;5101;49.038;8.710;2023-02-13T11:59:12;13.90;66.60
10123;DHT22;5101;49.038;8.710;2023-02-13T12:01:38;13.80;66.80
10123;DHT22;5101;49.038;8.710;2023-02-13T12:04:15;13.80;67.00
10123;DHT22;5101;49.038;8.710;2023-02-13T12:06:58;13.50;67.50
10123;DHT22;5101;49.038;8.710;2023-02-13T12:09:24;13.10;68.70
10123;DHT22;5101;49.038;8.710;2023-02-13T12:11:51;13.10;69.60
10123;DHT22;5101;49.038;8.710;2023-02-13T12:14:26;12.90;70.30
10123;DHT22;5101;49.038;8.710;2023-02-13T12:17:10;12.90;70.80
10123;DHT22;5101;49.038;8.710;2023-02-13T12:19:41;13.20;71.00
10123;DHT22;5101;49.038;8.710;2023-02-13T12:22:21;13.40;70.20
10123;DHT22;5101;49.038;8.710;2023-02-13T12:35:47;12.80;71.30
10123;DHT22;5101;49.038;8.710;2023-02-13T12:38:37;12.70;72.20
10123;DHT22;5101;49.038;8.710;2023-02-13T12:57:31;13.00;72.00
10123;DHT22;5101;49.038;8.710;2023-02-13T13:02:52;13.20;71.70
10123;DHT22;5101;49.038;8.710;2023-02-13T13:08:41;13.70;71.50
10123;DHT22;5101;49.038;8.710;2023-02-13T13:11:45;13.70;71.10
10123;DHT22;5101;49.038;8.710;2023-02-13T13:17:15;13.60;70.30
10123;DHT22;5101;49.038;8.710;2023-02-13T13:19:53;13.80;70.00
10123;DHT22;5101;49.038;8.710;2023-02-13T13:22:32;13.80;69.80
10123;DHT22;5101;49.038;8.710;2023-02-13T13:27:45;13.40;70.40
10123;DHT22;5101;49.038;8.710;2023-02-13T13:30:15;13.50;70.50
10123;DHT22;5101;49.038;8.710;2023-02-13T13:32:43;13.50;70.70
10123;DHT22;5101;49.038;8.710;2023-02-13T13:35:18;13.60;70.40
10123;DHT22;5101;49.038;8.710;2023-02-13T13:40:41;13.50;69.20
10123;DHT22;5101;49.038;8.710;2023-02-13T13:49:04;13.30;69.90
10123;DHT22;5101;49.038;8.710;2023-02-13T13:51:31;13.40;69.10
10123;DHT22;5101;49.038;8.710;2023-02-13T13:56:48;13.50;68.20
10123;DHT22;5101;49.038;8.710;2023-02-13T14:07:24;13.60;65.60
10123;DHT22;5101;49.038;8.710;2023-02-13T14:09:50;13.60;65.70
10123;DHT22;5101;49.038;8.710;2023-02-13T14:14:51;13.60;65.20
10123;DHT22;5101;49.038;8.710;2023-02-13T14:20:33;13.50;65.10
10123;DHT22;5101;49.038;8.710;2023-02-13T14:25:32;13.50;65.30
10123;DHT22;5101;49.038;8.710;2023-02-13T14:28:00;13.50;65.30
10123;DHT22;5101;49.038;8.710;2023-02-13T14:30:36;13.40;65.20
10123;DHT22;5101;49.038;8.710;2023-02-13T14:33:06;13.30;65.10
10123;DHT22;5101;49.038;8.710;2023-02-13T14:35:35;13.30;65.10
10123;DHT22;5101;49.038;8.710;2023-02-13T14:38:06;13.20;65.00
10123;DHT22;5101;49.038;8.710;2023-02-13T14:49:02;13.20;65.20
10123;DHT22;5101;49.038;8.710;2023-02-13T14:51:34;13.10;65.20
10123;DHT22;5101;49.038;8.710;2023-02-13T14:54:07;13.10;65.30
10123;DHT22;5101;49.038;8.710;2023-02-13T14:56:36;13.10;65.30
10123;DHT22;5101;49.038;8.710;2023-02-13T14:59:12;13.00;65.40
10123;DHT22;5101;49.038;8.710;2023-02-13T15:01:50;13.00;65.50
10123;DHT22;5101;49.038;8.710;2023-02-13T15:04:34;13.00;65.90
10123;DHT22;5101;49.038;8.710;2023-02-13T15:07:06;12.90;66.20
10123;DHT22;5101;49.038;8.710;2023-02-13T15:09:39;12.90;66.30
10123;DHT22;5101;49.038;8.710;2023-02-13T15:12:31;12.90;66.30
10123;DHT22;5101;49.038;8.710;2023-02-13T15:14:58;12.80;66.40
10123;DHT22;5101;49.038;8.710;2023-02-13T15:17:31;12.80;66.80
10123;DHT22;5101;49.038;8.710;2023-02-13T15:20:27;12.70;66.90
10123;DHT22;5101;49.038;8.710;2023-02-13T15:22:52;12.80;67.10
10123;DHT22;5101;49.038;8.710;2023-02-13T15:25:22;12.70;67.40
10123;DHT22;5101;49.038;8.710;2023-02-13T15:27:51;12.70;67.70
10123;DHT22;5101;49.038;8.710;2023-02-13T15:33:01;12.60;68.20
10123;DHT22;5101;49.038;8.710;2023-02-13T15:35:34;12.50;68.40
10123;DHT22;5101;49.038;8.710;2023-02-13T15:38:28;12.50;68.50
10123;DHT22;5101;49.038;8.710;2023-02-13T15:40:59;12.50;68.70
10123;DHT22;5101;49.038;8.710;2023-02-13T15:46:05;12.40;69.30
10123;DHT22;5101;49.038;8.710;2023-02-13T15:48:32;12.30;69.50
10123;DHT22;5101;49.038;8.710;2023-02-13T15:50:59;12.30;69.90
10123;DHT22;5101;49.038;8.710;2023-02-13T15:53:25;12.30;70.20
10123;DHT22;5101;49.038;8.710;2023-02-13T15:56:02;12.30;70.20
10123;DHT22;5101;49.038;8.710;2023-02-13T15:58:31;12.20;70.20
10123;DHT22;5101;49.038;8.710;2023-02-13T16:01:03;12.10;70.70
10123;DHT22;5101;49.038;8.710;2023-02-13T16:03:30;12.10;71.50
10123;DHT22;5101;49.038;8.710;2023-02-13T16:05:57;11.90;72.40
10123;DHT22;5101;49.038;8.710;2023-02-13T16:10:48;11.80;74.40
10123;DHT22;5101;49.038;8.710;2023-02-13T16:13:15;11.70;75.10
10123;DHT22;5101;49.038;8.710;2023-02-13T16:15:42;11.70;75.60
10123;DHT22;5101;49.038;8.710;2023-02-13T16:18:17;11.70;76.30
10123;DHT22;5101;49.038;8.710;2023-02-13T16:20:44;11.60;78.00
10123;DHT22;5101;49.038;8.710;2023-02-13T16:23:16;11.50;77.80
10123;DHT22;5101;49.038;8.710;2023-02-13T16:25:46;11.50;78.70
10123;DHT22;5101;49.038;8.710;2023-02-13T16:28:18;11.40;79.10
10123;DHT22;5101;49.038;8.710;2023-02-13T16:30:46;11.30;79.80
10123;DHT22;5101;49.038;8.710;2023-02-13T16:35:41;11.20;80.20
10123;DHT22;5101;49.038;8.710;2023-02-13T16:40:53;11.10;80.90
10123;DHT22;5101;49.038;8.710;2023-02-13T16:48:49;10.90;81.90
10123;DHT22;5101;49.038;8.710;2023-02-13T16:56:41;10.80;81.80
10123;DHT22;5101;49.038;8.710;2023-02-13T16:59:24;10.70;82.20
10123;DHT22;5101;49.038;8.710;2023-02-13T17:02:09;10.70;82.30
10123;DHT22;5101;49.038;8.710;2023-02-13T17:04:36;10.70;82.50
10123;DHT22;5101;49.038;8.710;2023-02-13T17:07:10;10.60;82.70
10123;DHT22;5101;49.038;8.710;2023-02-13T17:09:36;10.50;83.20
10123;DHT22;5101;49.038;8.710;2023-02-13T17:12:02;10.50;83.30
10123;DHT22;5101;49.038;8.710;2023-02-13T17:14:27;10.40;83.40
10123;DHT22;5101;49.038;8.710;2023-02-13T17:16:53;10.30;83.80
10123;DHT22;5101;49.038;8.710;2023-02-13T17:19:18;10.30;84.10
10123;DHT22;5101;49.038;8.710;2023-02-13T17:21:43;10.20;84.10
10123;DHT22;5101;49.038;8.710;2023-02-13T17:24:15;10.20;84.10
10123;DHT22;5101;49.038;8.710;2023-02-13T17:26:42;10.20;84.40
10123;DHT22;5101;49.038;8.710;2023-02-13T17:29:07;10.10;84.30
10123;DHT22;5101;49.038;8.710;2023-02-13T17:31:33;10.00;84.60
10123;DHT22;5101;49.038;8.710;2023-02-13T17:33:58;10.00;85.00
10123;DHT22;5101;49.038;8.710;2023-02-13T17:36:24;9.90;86.20
10123;DHT22;5101;49.038;8.710;2023-02-13T17:38:49;9.90;86.30
10123;DHT22;5101;49.038;8.710;2023-02-13T17:41:15;9.80;86.20
10123;DHT22;5101;49.038;8.710;2023-02-13T17:43:41;9.70;86.40
10123;DHT22;5101;49.038;8.710;2023-02-13T17:46:06;9.70;86.80
10123;DHT22;5101;49.038;8.710;2023-02-13T17:48:32;9.60;87.10
10123;DHT22;5101;49.038;8.710;2023-02-13T17:50:57;9.50;87.20
10123;DHT22;5101;49.038;8.710;2023-02-13T17:53:27;9.50;87.40
10123;DHT22;5101;49.038;8.710;2023-02-13T17:55:57;9.30;87.90
10123;DHT22;5101;49.038;8.710;2023-02-13T17:58:23;9.20;88.30
10123;DHT22;5101;49.038;8.710;2023-02-13T18:00:48;9.20;88.50
10123;DHT22;5101;49.038;8.710;2023-02-13T18:03:14;9.10;88.70
10123;DHT22;5101;49.038;8.710;2023-02-13T18:05:40;9.00;88.90
10123;DHT22;5101;49.038;8.710;2023-02-13T18:08:06;9.00;89.00
10123;DHT22;5101;49.038;8.710;2023-02-13T18:10:34;8.90;89.10
10123;DHT22;5101;49.038;8.710;2023-02-13T18:13:00;8.90;89.20
10123;DHT22;5101;49.038;8.710;2023-02-13T18:15:33;8.80;89.20
10123;DHT22;5101;49.038;8.710;2023-02-13T18:17:59;8.70;89.50
10123;DHT22;5101;49.038;8.710;2023-02-13T18:20:25;8.60;89.50
10123;DHT22;5101;49.038;8.710;2023-02-13T18:22:51;8.50;89.70
10123;DHT22;5101;49.038;8.710;2023-02-13T18:25:18;8.50;90.00
10123;DHT22;5101;49.038;8.710;2023-02-13T18:27:44;8.40;90.20
10123;DHT22;5101;49.038;8.710;2023-02-13T18:30:12;8.30;90.20
10123;DHT22;5101;49.038;8.710;2023-02-13T18:32:38;8.20;90.20
10123;DHT22;5101;49.038;8.710;2023-02-13T18:35:03;8.10;90.30
10123;DHT22;5101;49.038;8.710;2023-02-13T18:37:29;8.10;90.50
10123;DHT22;5101;49.038;8.710;2023-02-13T18:39:55;8.00;90.70
10123;DHT22;5101;49.038;8.710;2023-02-13T18:42:21;8.10;90.80
10123;DHT22;5101;49.038;8.710;2023-02-13T18:44:47;7.80;90.80
10123;DHT22;5101;49.038;8.710;2023-02-13T18:47:12;7.70;90.90
10123;DHT22;5101;49.038;8.710;2023-02-13T18:49:38;7.60;91.10
10123;DHT22;5101;49.038;8.710;2023-02-13T18:52:03;7.60;91.30
10123;DHT22;5101;49.038;8.710;2023-02-13T18:54:29;7.40;91.40
10123;DHT22;5101;49.038;8.710;2023-02-13T18:56:54;7.30;91.70
10123;DHT22;5101;49.038;8.710;2023-02-13T18:59:20;7.20;92.00
10123;DHT22;5101;49.038;8.710;2023-02-13T19:01:47;7.20;92.20
10123;DHT22;5101;49.038;8.710;2023-02-13T19:04:13;7.10;92.30